Toliver, North Carolina
Current Conditions -  °F | °C
As of 1:35 PM on Sunday 21 Dec 2014 (Local Time) from KTNB Reporting Station
Scattered Clouds Scattered Clouds  
Wind Chill: 36°   Ceiling: Unl
Heat Index: 42°   Visibility: 10mi
Dew Point: 33°   Wind: 8mph
Humidity: 71%   Direction: 130°SE
Pressure: 30.15"   Gusts: NA
Location:  36.3248°N, 81.6045°W
Report Text: KTNB 211835Z AUTO 13007KT 10SM SCT017 SCT023 05/01 A3015 RMK AO2 T00530005
Loading
Personal Weather Stations






























Interactive Weather Map New forecast layout! Learn more

10-Day Weather Forecast

Advertisements
Track Severe Weather on mobile